createdAt,value
2019-03-31T00:03:23.273Z,57.93
2019-03-31T00:08:20.217Z,58.50
2019-03-31T00:13:17.259Z,58.34
2019-03-31T00:18:14.345Z,59.01
2019-03-31T00:23:11.771Z,58.75
2019-03-31T00:28:08.750Z,57.79
2019-03-31T00:33:05.844Z,58.45
2019-03-31T00:38:02.853Z,58.32
2019-03-31T00:43:00.002Z,58.20
2019-03-31T00:47:56.956Z,57.51
2019-03-31T00:52:53.977Z,58.42
2019-03-31T00:57:51.028Z,59.17
2019-03-31T01:02:48.748Z,58.85
2019-03-31T01:07:46.522Z,59.14
2019-03-31T01:12:43.564Z,58.89
2019-03-31T01:17:43.932Z,58.79
2019-03-31T01:22:41.031Z,58.55
2019-03-31T01:27:38.165Z,58.79
2019-03-31T01:32:35.222Z,59.09
2019-03-31T01:37:32.278Z,58.76
2019-03-31T01:42:29.308Z,58.00
2019-03-31T01:47:26.445Z,57.29
2019-03-31T01:52:23.540Z,58.51
2019-03-31T01:57:20.604Z,57.96
2019-03-31T02:02:25.561Z,57.77
2019-03-31T02:07:22.616Z,58.30
2019-03-31T02:12:19.706Z,57.65
2019-03-31T02:17:17.761Z,57.29
2019-03-31T02:22:16.809Z,57.66
2019-03-31T02:27:13.902Z,57.99
2019-03-31T02:32:23.244Z,58.75
2019-03-31T02:37:09.980Z,58.48
2019-03-31T02:42:07.102Z,58.21
2019-03-31T02:47:04.318Z,58.35
2019-03-31T02:52:02.072Z,58.27
2019-03-31T02:56:59.225Z,58.88
2019-03-31T03:01:57.263Z,59.00
2019-03-31T03:06:55.960Z,58.25
2019-03-31T03:11:54.959Z,59.02
2019-03-31T03:16:53.083Z,58.69
2019-03-31T03:21:50.266Z,59.12
2019-03-31T03:26:49.226Z,58.75
2019-03-31T03:31:46.427Z,58.43
2019-03-31T03:36:43.969Z,58.61
2019-03-31T03:41:42.711Z,58.36
2019-03-31T03:46:39.764Z,57.62
2019-03-31T03:51:36.960Z,58.78
2019-03-31T03:56:35.225Z,59.58
2019-03-31T04:01:33.061Z,57.84
2019-03-31T04:06:30.235Z,57.33
2019-03-31T04:11:27.872Z,58.00
2019-03-31T04:16:25.270Z,58.17
2019-03-31T04:21:23.989Z,58.93
2019-03-31T04:26:21.169Z,58.46
2019-03-31T04:31:18.377Z,60.28
2019-03-31T04:36:15.486Z,60.23
2019-03-31T04:41:12.648Z,58.17
2019-03-31T04:46:09.732Z,58.45
2019-03-31T04:51:06.929Z,58.86
2019-03-31T04:56:04.188Z,60.12
2019-03-31T05:01:02.455Z,59.02
2019-03-31T05:05:59.587Z,58.56
2019-03-31T05:10:56.615Z,59.28
2019-03-31T05:15:53.711Z,59.29
2019-03-31T05:20:50.926Z,59.06
2019-03-31T05:25:48.080Z,57.25
2019-03-31T05:30:46.213Z,58.88
2019-03-31T05:35:43.301Z,58.86
2019-03-31T05:40:40.520Z,56.55
2019-03-31T05:45:37.610Z,55.77
2019-03-31T05:50:35.851Z,52.01
2019-03-31T05:55:32.901Z,50.15
2019-03-31T06:00:34.657Z,48.50
2019-03-31T06:05:33.990Z,48.64
2019-03-31T06:10:31.265Z,47.84
2019-03-31T06:15:28.374Z,47.29
2019-03-31T06:20:25.918Z,47.03
2019-03-31T06:25:24.717Z,46.92
2019-03-31T06:30:21.947Z,45.57
2019-03-31T06:35:19.101Z,45.34
2019-03-31T06:40:18.957Z,42.79
2019-03-31T06:45:16.086Z,42.71
2019-03-31T06:50:13.328Z,42.94
2019-03-31T06:55:10.554Z,40.96
2019-03-31T07:00:07.983Z,40.39
2019-03-31T07:05:06.333Z,39.83
2019-03-31T07:10:06.630Z,38.29
2019-03-31T07:15:08.786Z,37.10
2019-03-31T07:20:08.898Z,37.96
2019-03-31T07:25:08.888Z,36.14
2019-03-31T07:30:13.130Z,38.33
2019-03-31T07:35:18.488Z,33.14
2019-03-31T07:40:14.529Z,30.45
2019-03-31T07:45:14.474Z,30.40
2019-03-31T07:50:16.831Z,30.15
2019-03-31T07:55:14.554Z,29.49
2019-03-31T08:00:19.188Z,29.03
2019-03-31T08:05:17.101Z,31.51
2019-03-31T08:10:16.247Z,31.16
2019-03-31T08:15:13.837Z,31.64
2019-03-31T08:20:13.630Z,29.76
2019-03-31T08:25:14.590Z,29.54
2019-03-31T08:30:15.036Z,27.94
2019-03-31T08:35:13.270Z,27.00
2019-03-31T08:40:11.591Z,27.81
2019-03-31T08:45:09.172Z,25.70
2019-03-31T08:50:07.565Z,24.74
2019-03-31T08:55:05.346Z,25.78
2019-03-31T09:00:05.424Z,24.60
2019-03-31T09:05:07.838Z,23.55
2019-03-31T09:10:07.101Z,23.67
2019-03-31T09:15:07.693Z,25.12
2019-03-31T09:20:06.172Z,21.59
2019-03-31T09:25:04.997Z,22.60
2019-03-31T09:30:08.144Z,22.77
2019-03-31T09:35:07.542Z,20.75
2019-03-31T09:40:08.765Z,22.37
2019-03-31T09:45:08.999Z,21.10
2019-03-31T09:50:10.739Z,21.45
2019-03-31T09:55:08.651Z,21.00
2019-03-31T10:00:09.394Z,22.42
2019-03-31T10:05:06.628Z,21.99
2019-03-31T10:10:10.582Z,21.70
2019-03-31T10:15:09.058Z,20.71
2019-03-31T10:20:07.240Z,22.75
2019-03-31T10:25:05.979Z,22.17
2019-03-31T10:30:05.720Z,21.56
2019-03-31T10:35:06.790Z,20.33
2019-03-31T10:40:06.711Z,20.22
2019-03-31T10:45:07.108Z,19.82
2019-03-31T10:50:06.330Z,19.96
2019-03-31T10:55:05.412Z,20.71
2019-03-31T11:00:08.257Z,20.91
2019-03-31T11:05:06.141Z,20.78
2019-03-31T11:10:05.264Z,20.28
2019-03-31T11:15:02.804Z,21.79
2019-03-31T11:20:00.885Z,22.35
2019-03-31T11:24:58.617Z,22.55
2019-03-31T11:29:55.675Z,20.31
2019-03-31T11:34:52.835Z,19.81
2019-03-31T11:39:49.957Z,21.17
2019-03-31T11:44:47.028Z,19.79
2019-03-31T11:49:44.179Z,20.15
2019-03-31T11:54:41.336Z,19.91
2019-03-31T11:59:38.549Z,19.82
2019-03-31T12:04:35.694Z,20.86
2019-03-31T12:09:32.838Z,19.81
2019-03-31T12:14:30.021Z,20.83
2019-03-31T12:19:27.164Z,18.65
2019-03-31T12:24:24.771Z,20.22
2019-03-31T12:29:21.989Z,19.47
2019-03-31T12:34:20.211Z,17.98
2019-03-31T12:39:18.351Z,19.40
2019-03-31T12:44:15.472Z,19.78
2019-03-31T12:49:12.648Z,19.22
2019-03-31T12:54:11.671Z,19.70
2019-03-31T12:59:08.836Z,18.70
2019-03-31T13:04:07.970Z,20.04
2019-03-31T13:09:07.382Z,20.17
2019-03-31T13:14:04.489Z,20.94
2019-03-31T13:19:01.526Z,20.11
2019-03-31T13:23:58.711Z,19.82
2019-03-31T13:28:56.962Z,18.73
2019-03-31T13:33:54.400Z,19.82
2019-03-31T13:38:51.590Z,20.89
2019-03-31T13:43:48.735Z,19.73
2019-03-31T13:48:46.749Z,20.99
2019-03-31T13:53:43.897Z,21.60
2019-03-31T13:58:41.742Z,22.11
2019-03-31T14:03:39.170Z,20.48
2019-03-31T14:08:36.312Z,21.52
2019-03-31T14:13:33.546Z,20.64
2019-03-31T14:18:30.715Z,20.59
2019-03-31T14:23:27.798Z,20.21
2019-03-31T14:28:25.404Z,19.14
2019-03-31T14:33:23.987Z,18.60
2019-03-31T14:38:22.160Z,18.41
2019-03-31T14:43:19.277Z,19.54
2019-03-31T14:48:16.354Z,18.07
2019-03-31T14:53:13.528Z,18.20
2019-03-31T14:58:10.698Z,17.80
2019-03-31T15:03:08.793Z,18.13
2019-03-31T15:08:05.996Z,18.40
2019-03-31T15:13:03.384Z,17.77
2019-03-31T15:18:00.579Z,18.58
2019-03-31T15:22:57.657Z,18.83
2019-03-31T15:27:54.898Z,18.85
2019-03-31T15:32:51.996Z,19.76
2019-03-31T15:37:51.421Z,20.88
2019-03-31T15:42:48.519Z,21.75
2019-03-31T15:47:46.041Z,22.37
2019-03-31T15:52:43.145Z,22.73
2019-03-31T15:57:40.363Z,23.21
2019-03-31T16:02:37.563Z,23.98
2019-03-31T16:07:34.968Z,24.99
2019-03-31T16:12:32.147Z,25.32
2019-03-31T16:17:30.450Z,25.33
2019-03-31T16:22:28.526Z,25.87
2019-03-31T16:27:25.778Z,25.97
2019-03-31T16:32:22.864Z,25.39
2019-03-31T16:37:20.016Z,26.39
2019-03-31T16:42:18.587Z,25.93
2019-03-31T16:47:15.749Z,26.26
2019-03-31T16:52:12.964Z,26.50
2019-03-31T16:57:12.121Z,27.23
2019-03-31T17:02:09.187Z,27.85
2019-03-31T17:07:07.659Z,28.02
2019-03-31T17:12:05.088Z,28.26
2019-03-31T17:17:02.626Z,29.03
2019-03-31T17:22:00.027Z,29.95
2019-03-31T17:26:57.182Z,29.93
2019-03-31T17:31:54.254Z,30.74
2019-03-31T17:36:51.277Z,31.64
2019-03-31T17:41:48.347Z,32.66
2019-03-31T17:46:45.913Z,33.43
2019-03-31T17:51:42.950Z,33.88
2019-03-31T17:56:40.261Z,34.45
2019-03-31T18:01:37.472Z,36.14
2019-03-31T18:06:35.895Z,37.14
2019-03-31T18:11:33.374Z,38.71
2019-03-31T18:16:30.818Z,38.60
2019-03-31T18:21:27.886Z,39.22
2019-03-31T18:26:25.494Z,39.55
2019-03-31T18:31:22.568Z,39.57
2019-03-31T18:36:19.689Z,39.75
2019-03-31T18:41:16.683Z,40.44
2019-03-31T18:46:13.800Z,41.74
2019-03-31T18:51:10.968Z,41.41
2019-03-31T18:56:09.067Z,42.14
2019-03-31T19:01:08.997Z,42.09
2019-03-31T19:06:15.354Z,41.95
2019-03-31T19:11:21.444Z,43.06
2019-03-31T19:16:20.419Z,44.16
2019-03-31T19:21:29.714Z,44.47
2019-03-31T19:26:31.513Z,43.77
2019-03-31T19:31:49.297Z,45.79
2019-03-31T19:37:04.678Z,46.06
2019-03-31T19:42:09.673Z,46.06
2019-03-31T19:47:15.899Z,46.50
2019-03-31T19:52:19.673Z,47.01
2019-03-31T19:57:27.785Z,47.78
2019-03-31T20:02:36.704Z,48.38
2019-03-31T20:07:35.801Z,48.80
2019-03-31T20:12:46.819Z,47.53
2019-03-31T20:17:45.782Z,50.08
2019-03-31T20:23:01.647Z,48.64
2019-03-31T20:28:07.338Z,48.47
2019-03-31T20:33:22.652Z,49.32
2019-03-31T20:38:21.604Z,48.52
2019-03-31T20:43:23.396Z,50.99
2019-03-31T20:48:20.638Z,50.57
2019-03-31T20:53:17.920Z,49.44
2019-03-31T20:58:15.084Z,51.60
2019-03-31T21:03:12.216Z,51.65
2019-03-31T21:08:09.190Z,51.03
2019-03-31T21:13:08.297Z,51.50
2019-03-31T21:18:06.316Z,50.94
2019-03-31T21:23:03.508Z,51.05
2019-03-31T21:28:01.671Z,48.38
2019-03-31T21:32:58.814Z,48.58
2019-03-31T21:37:55.888Z,49.59
2019-03-31T21:42:53.633Z,49.72
2019-03-31T21:47:50.615Z,49.90
2019-03-31T21:52:47.808Z,49.76
2019-03-31T21:57:45.341Z,49.51
2019-03-31T22:02:42.976Z,48.42
2019-03-31T22:07:41.108Z,49.86
2019-03-31T22:12:38.241Z,49.41
2019-03-31T22:17:35.250Z,48.86
2019-03-31T22:22:34.592Z,48.30
2019-03-31T22:27:31.685Z,49.28
2019-03-31T22:32:28.790Z,48.84
2019-03-31T22:37:25.949Z,49.52
2019-03-31T22:42:24.459Z,49.92
2019-03-31T22:47:21.511Z,49.41
2019-03-31T22:52:20.739Z,50.70
2019-03-31T22:57:17.885Z,50.77
2019-03-31T23:02:22.319Z,49.45
2019-03-31T23:07:19.342Z,49.58
2019-03-31T23:12:16.438Z,48.98
2019-03-31T23:17:13.502Z,48.58
2019-03-31T23:22:10.613Z,49.21
2019-03-31T23:27:07.707Z,49.40
2019-03-31T23:32:04.833Z,49.94
2019-03-31T23:37:01.915Z,49.57
2019-03-31T23:41:59.107Z,48.95
2019-03-31T23:46:56.295Z,48.33
2019-03-31T23:51:53.416Z,48.59
2019-03-31T23:56:53.068Z,48.35
